Sunflower Gold — JD2460 — position and weather

sailwx.info

Track history (hours):
 
Tides and Currents Weather Stations Pressure Air Temp Water Temp Dewpoint Dewpoint Depression Visibility Wind Speed Wind Dir Waves Ship Positions

Sunflower Gold

Last reported at 2015-Jul-02 03:28 UTC. Time now 2015-Jul-02 03:41 UTC.
Position N 34°42' E 135°17'.

Length 166 m; draft 5.8 m.

Type: Passenger vessel. MMSI: 431000331.

Date/timePositionNaut miles runAvg speedWind from/ knotsBaromVisibWave heightAir tempDewpointWater temp
2015-Jul-02 03:28N 34°42' E 135°17'0 0.0
2015-Jul-02 02:22N 34°42' E 135°17'0 0.0
2015-Jul-02 01:28N 34°42' E 135°17'0 0.0
2015-Jul-02 00:28N 34°42' E 135°17'0 0.0
2015-Jul-01 23:28N 34°42' E 135°17'0 0.0
2015-Jul-01 22:28N 34°42' E 135°17'0 0.0
2015-Jul-01 21:33N 34°42' E 135°17'1212.2
2015-Jul-01 20:33N 34°34' E 135°05'11 0.3
2015-Jun-30 11:17N 34°35' E 134°52'1521.0
2015-Jun-30 10:33N 34°36' E 135°10'8 7.4
2015-Jun-30 09:28N 34°42' E 135°17'0 0.0
2015-Jun-30 08:10N 34°42' E 135°17'0 0.0
2015-Jun-30 07:16N 34°42' E 135°17'0 0.0
2015-Jun-30 06:22N 34°42' E 135°17'0 0.0
2015-Jun-30 05:28N 34°42' E 135°17'0 0.0
2015-Jun-30 04:28N 34°42' E 135°17'0 0.0
2015-Jun-30 03:16N 34°42' E 135°17'0 0.0
2015-Jun-30 02:22N 34°42' E 135°17'0 0.0
2015-Jun-30 01:28N 34°42' E 135°17'0 0.0
2015-Jun-30 00:28N 34°42' E 135°17'0 0.0
2015-Jun-29 23:28N 34°42' E 135°17'0 0.0
2015-Jun-29 22:28N 34°42' E 135°17'0 0.0
2015-Jun-29 21:32N 34°42' E 135°17'1212.8
2015-Jun-29 20:33N 34°35' E 135°04'11 0.3
2015-Jun-28 11:25N 34°35' E 134°51'1719.6
2015-Jun-28 10:33N 34°36' E 135°12'7 6.4
2015-Jun-28 09:25N 34°42' E 135°17'0 0.0
2015-Jun-28 08:31N 34°42' E 135°17'0 0.0
2015-Jun-28 07:31N 34°42' E 135°17'0 0.0
2015-Jun-28 06:31N 34°42' E 135°17'0 0.0
2015-Jun-28 05:31N 34°42' E 135°17'0 0.0
2015-Jun-28 04:31N 34°42' E 135°17'0 0.0
2015-Jun-28 03:31N 34°42' E 135°17'0 0.0
2015-Jun-28 02:25N 34°42' E 135°17'0 0.0
2015-Jun-28 01:31N 34°42' E 135°17'0 0.0
2015-Jun-28 00:31N 34°42' E 135°17'0 0.0
2015-Jun-27 23:31N 34°42' E 135°17'2 2.0
2015-Jun-27 22:33N 34°40' E 135°18'1615.6
2015-Jun-27 21:33N 34°37' E 134°60'7 0.2
2015-Jun-26 12:15N 34°35' E 134°52'1218.0
2015-Jun-26 11:33N 34°36' E 135°08'10 9.1
2015-Jun-26 10:29N 34°42' E 135°17'0 0.0
2015-Jun-26 09:17N 34°42' E 135°17'0 0.0
2015-Jun-26 08:29N 34°42' E 135°17'0 0.0
2015-Jun-26 07:29N 34°42' E 135°17'0 0.0
2015-Jun-26 06:23N 34°42' E 135°17'0 0.0
2015-Jun-26 05:29N 34°42' E 135°17'0 0.0
2015-Jun-26 04:29N 34°42' E 135°17'0 0.0
2015-Jun-26 03:29N 34°42' E 135°17'0 0.0
2015-Jun-26 02:29N 34°42' E 135°17'0 0.0
2015-Jun-26 01:29N 34°42' E 135°17'0 0.0
2015-Jun-26 00:23N 34°42' E 135°17'0 0.0
2015-Jun-25 23:29N 34°42' E 135°17'0 0.0
2015-Jun-25 22:29N 34°42' E 135°17'0 0.0
2015-Jun-25 21:33N 34°42' E 135°17'1212.4
2015-Jun-25 20:33N 34°35' E 135°05'8 0.3
2015-Jun-24 11:17N 34°36' E 134°54'1418.8
2015-Jun-24 10:33N 34°37' E 135°11'7 7.0
2015-Jun-24 09:33N 34°42' E 135°17'0 0.0
2015-Jun-24 08:24N 34°42' E 135°17'0 0.0
2015-Jun-24 07:30N 34°42' E 135°17'0 0.0
2015-Jun-24 06:30N 34°42' E 135°17'0 0.0
2015-Jun-24 05:24N 34°42' E 135°17'0 0.0
2015-Jun-24 04:30N 34°42' E 135°17'0 0.0
2015-Jun-24 03:24N 34°42' E 135°17'0 0.0
2015-Jun-24 02:30N 34°42' E 135°17'0 0.0
2015-Jun-24 01:24N 34°42' E 135°17'0 0.0
2015-Jun-24 00:30N 34°42' E 135°17'0 0.0
2015-Jun-23 23:30N 34°42' E 135°17'0 0.0
2015-Jun-23 22:30N 34°42' E 135°17'0 0.0
2015-Jun-23 21:33N 34°42' E 135°17'1312.6
2015-Jun-23 20:33N 34°35' E 135°04'13 0.4
2015-Jun-22 11:30N 34°34' E 134°49'1819.3
2015-Jun-22 10:33N 34°37' E 135°11'7 7.3
2015-Jun-22 09:32N 34°42' E 135°17'0 0.0
2015-Jun-22 08:32N 34°42' E 135°17'0 0.0
2015-Jun-22 07:26N 34°42' E 135°17'0 0.0
2015-Jun-22 06:32N 34°42' E 135°17'0 0.0
2015-Jun-22 05:32N 34°42' E 135°17'0 0.0
2015-Jun-22 03:32N 34°42' E 135°17'  
Track history (hours):
 
Tides and Currents Weather Stations Pressure Air Temp Water Temp Dewpoint Dewpoint Depression Visibility Wind Speed Wind Dir Waves Ship Positions

Sunflower Gold

Last reported at 2015-Jul-02 03:28 UTC. Time now 2015-Jul-02 03:41 UTC.
Position N 34°42' E 135°17'.

Length 166 m; draft 5.8 m.

Type: Passenger vessel. MMSI: 431000331.

Date/timePositionNaut miles runAvg speedWind from/ knotsBaromVisibWave heightAir tempDewpointWater temp
2015-Jul-02 03:28N 34°42' E 135°17'0 0.0
2015-Jul-02 02:22N 34°42' E 135°17'0 0.0
2015-Jul-02 01:28N 34°42' E 135°17'0 0.0
2015-Jul-02 00:28N 34°42' E 135°17'0 0.0
2015-Jul-01 23:28N 34°42' E 135°17'0 0.0
2015-Jul-01 22:28N 34°42' E 135°17'0 0.0
2015-Jul-01 21:33N 34°42' E 135°17'1212.2
2015-Jul-01 20:33N 34°34' E 135°05'11 0.3
2015-Jun-30 11:17N 34°35' E 134°52'1521.0
2015-Jun-30 10:33N 34°36' E 135°10'8 7.4
2015-Jun-30 09:28N 34°42' E 135°17'0 0.0
2015-Jun-30 08:10N 34°42' E 135°17'0 0.0
2015-Jun-30 07:16N 34°42' E 135°17'0 0.0
2015-Jun-30 06:22N 34°42' E 135°17'0 0.0
2015-Jun-30 05:28N 34°42' E 135°17'0 0.0
2015-Jun-30 04:28N 34°42' E 135°17'0 0.0
2015-Jun-30 03:16N 34°42' E 135°17'0 0.0
2015-Jun-30 02:22N 34°42' E 135°17'0 0.0
2015-Jun-30 01:28N 34°42' E 135°17'0 0.0
2015-Jun-30 00:28N 34°42' E 135°17'0 0.0
2015-Jun-29 23:28N 34°42' E 135°17'0 0.0
2015-Jun-29 22:28N 34°42' E 135°17'0 0.0
2015-Jun-29 21:32N 34°42' E 135°17'1212.8
2015-Jun-29 20:33N 34°35' E 135°04'11 0.3
2015-Jun-28 11:25N 34°35' E 134°51'1719.6
2015-Jun-28 10:33N 34°36' E 135°12'7 6.4
2015-Jun-28 09:25N 34°42' E 135°17'0 0.0
2015-Jun-28 08:31N 34°42' E 135°17'0 0.0
2015-Jun-28 07:31N 34°42' E 135°17'0 0.0
2015-Jun-28 06:31N 34°42' E 135°17'0 0.0
2015-Jun-28 05:31N 34°42' E 135°17'0 0.0
2015-Jun-28 04:31N 34°42' E 135°17'0 0.0
2015-Jun-28 03:31N 34°42' E 135°17'0 0.0
2015-Jun-28 02:25N 34°42' E 135°17'0 0.0
2015-Jun-28 01:31N 34°42' E 135°17'0 0.0
2015-Jun-28 00:31N 34°42' E 135°17'0 0.0
2015-Jun-27 23:31N 34°42' E 135°17'2 2.0
2015-Jun-27 22:33N 34°40' E 135°18'1615.6
2015-Jun-27 21:33N 34°37' E 134°60'7 0.2
2015-Jun-26 12:15N 34°35' E 134°52'1218.0
2015-Jun-26 11:33N 34°36' E 135°08'10 9.1
2015-Jun-26 10:29N 34°42' E 135°17'0 0.0
2015-Jun-26 09:17N 34°42' E 135°17'0 0.0
2015-Jun-26 08:29N 34°42' E 135°17'0 0.0
2015-Jun-26 07:29N 34°42' E 135°17'0 0.0
2015-Jun-26 06:23N 34°42' E 135°17'0 0.0
2015-Jun-26 05:29N 34°42' E 135°17'0 0.0
2015-Jun-26 04:29N 34°42' E 135°17'0 0.0
2015-Jun-26 03:29N 34°42' E 135°17'0 0.0
2015-Jun-26 02:29N 34°42' E 135°17'0 0.0
2015-Jun-26 01:29N 34°42' E 135°17'0 0.0
2015-Jun-26 00:23N 34°42' E 135°17'0 0.0
2015-Jun-25 23:29N 34°42' E 135°17'0 0.0
2015-Jun-25 22:29N 34°42' E 135°17'0 0.0
2015-Jun-25 21:33N 34°42' E 135°17'1212.4
2015-Jun-25 20:33N 34°35' E 135°05'8 0.3
2015-Jun-24 11:17N 34°36' E 134°54'1418.8
2015-Jun-24 10:33N 34°37' E 135°11'7 7.0
2015-Jun-24 09:33N 34°42' E 135°17'0 0.0
2015-Jun-24 08:24N 34°42' E 135°17'0 0.0
2015-Jun-24 07:30N 34°42' E 135°17'0 0.0
2015-Jun-24 06:30N 34°42' E 135°17'0 0.0
2015-Jun-24 05:24N 34°42' E 135°17'0 0.0
2015-Jun-24 04:30N 34°42' E 135°17'0 0.0
2015-Jun-24 03:24N 34°42' E 135°17'0 0.0
2015-Jun-24 02:30N 34°42' E 135°17'0 0.0
2015-Jun-24 01:24N 34°42' E 135°17'0 0.0
2015-Jun-24 00:30N 34°42' E 135°17'0 0.0
2015-Jun-23 23:30N 34°42' E 135°17'0 0.0
2015-Jun-23 22:30N 34°42' E 135°17'0 0.0
2015-Jun-23 21:33N 34°42' E 135°17'1312.6
2015-Jun-23 20:33N 34°35' E 135°04'13 0.4
2015-Jun-22 11:30N 34°34' E 134°49'1819.3
2015-Jun-22 10:33N 34°37' E 135°11'7 7.3
2015-Jun-22 09:32N 34°42' E 135°17'0 0.0
2015-Jun-22 08:32N 34°42' E 135°17'0 0.0
2015-Jun-22 07:26N 34°42' E 135°17'0 0.0
2015-Jun-22 06:32N 34°42' E 135°17'0 0.0
2015-Jun-22 05:32N 34°42' E 135°17'0 0.0
2015-Jun-22 03:32N 34°42' E 135°17'  

Dump ship's entire track history